Cap Bianco — A8OK5 — position and weather

sailwx.info

Track history (hours):
 
Tides and Currents Weather Stations Pressure Air Temp Water Temp Dewpoint Dewpoint Depression Visibility Wind Speed Wind Dir Waves Ship Positions

Cap Bianco

Last reported at 2015-Mar-07 01:27 UTC. Time now 2015-May-07 07:38 UTC.
Position S 24°08' W 046°22'.
Warning: this ship's position is months out of date.

Length 222 m; draft 9.5 m.

Type: Cargo ship. MMSI: 636091489.

Date/timePositionNaut miles runAvg speedWind from/ knotsBaromVisibWave heightAir tempDewpointWater temp
2015-Mar-07 01:27S 24°08' W 046°22'910.4
2015-Mar-07 00:33S 23°59' W 046°18'2 1.4
2015-Mar-06 23:22S 23°58' W 046°18'0 0.0
2015-Mar-06 22:28S 23°58' W 046°18'0 0.0
2015-Mar-06 21:28S 23°58' W 046°18'0 0.0
2015-Mar-06 20:31S 23°58' W 046°18'0 0.0
2015-Mar-06 19:31S 23°58' W 046°18'0 0.0
2015-Mar-06 18:31S 23°58' W 046°18'0 0.0
2015-Mar-06 17:28S 23°58' W 046°18'0 0.0
2015-Mar-06 16:28S 23°58' W 046°18'6 5.0
2015-Mar-06 15:16S 24°03' W 046°21'7 9.6
2015-Mar-06 14:34S 24°09' W 046°19'0 0.2
2015-Mar-06 13:28S 24°09' W 046°19'0 0.1
2015-Mar-06 12:28S 24°09' W 046°19'0 0.0
2015-Mar-06 10:19S 24°09' W 046°19'0 0.1
2015-Mar-06 09:28S 24°09' W 046°19'0 0.1
2015-Mar-06 08:19S 24°09' W 046°19'0 0.0
2015-Mar-06 06:22S 24°09' W 046°19'0 0.0
2015-Mar-06 01:28S 24°09' W 046°19'0 0.0
2015-Mar-05 22:23S 24°09' W 046°19'  
Track history (hours):
 
Tides and Currents Weather Stations Pressure Air Temp Water Temp Dewpoint Dewpoint Depression Visibility Wind Speed Wind Dir Waves Ship Positions

Cap Bianco

Last reported at 2015-Mar-07 01:27 UTC. Time now 2015-May-07 07:38 UTC.
Position S 24°08' W 046°22'.
Warning: this ship's position is months out of date.

Length 222 m; draft 9.5 m.

Type: Cargo ship. MMSI: 636091489.

Date/timePositionNaut miles runAvg speedWind from/ knotsBaromVisibWave heightAir tempDewpointWater temp
2015-Mar-07 01:27S 24°08' W 046°22'910.4
2015-Mar-07 00:33S 23°59' W 046°18'2 1.4
2015-Mar-06 23:22S 23°58' W 046°18'0 0.0
2015-Mar-06 22:28S 23°58' W 046°18'0 0.0
2015-Mar-06 21:28S 23°58' W 046°18'0 0.0
2015-Mar-06 20:31S 23°58' W 046°18'0 0.0
2015-Mar-06 19:31S 23°58' W 046°18'0 0.0
2015-Mar-06 18:31S 23°58' W 046°18'0 0.0
2015-Mar-06 17:28S 23°58' W 046°18'0 0.0
2015-Mar-06 16:28S 23°58' W 046°18'6 5.0
2015-Mar-06 15:16S 24°03' W 046°21'7 9.6
2015-Mar-06 14:34S 24°09' W 046°19'0 0.2
2015-Mar-06 13:28S 24°09' W 046°19'0 0.1
2015-Mar-06 12:28S 24°09' W 046°19'0 0.0
2015-Mar-06 10:19S 24°09' W 046°19'0 0.1
2015-Mar-06 09:28S 24°09' W 046°19'0 0.1
2015-Mar-06 08:19S 24°09' W 046°19'0 0.0
2015-Mar-06 06:22S 24°09' W 046°19'0 0.0
2015-Mar-06 01:28S 24°09' W 046°19'0 0.0
2015-Mar-05 22:23S 24°09' W 046°19'  

Dump ship's entire track history